sensor_id;sensor_type;location;lat;lon;timestamp;pressure;altitude;pressure_sealevel;temperature;humidity
13235;BME280;6683;48.506;9.050;2022-07-29T00:02:57;97920.69;;;21.71;68.67
13235;BME280;6683;48.506;9.050;2022-07-29T00:06:01;97920.38;;;21.68;68.63
13235;BME280;6683;48.506;9.050;2022-07-29T00:09:04;97915.53;;;21.65;68.59
13235;BME280;6683;48.506;9.050;2022-07-29T00:12:07;97918.19;;;21.60;68.88
13235;BME280;6683;48.506;9.050;2022-07-29T00:15:10;97914.44;;;21.56;68.87
13235;BME280;6683;48.506;9.050;2022-07-29T00:18:13;97914.44;;;21.51;68.82
13235;BME280;6683;48.506;9.050;2022-07-29T00:21:17;97914.66;;;21.44;68.99
13235;BME280;6683;48.506;9.050;2022-07-29T00:24:20;97912.22;;;21.42;69.05
13235;BME280;6683;48.506;9.050;2022-07-29T00:27:22;97920.53;;;21.36;69.08
13235;BME280;6683;48.506;9.050;2022-07-29T00:30:25;97911.91;;;21.29;69.06
13235;BME280;6683;48.506;9.050;2022-07-29T00:33:29;97914.56;;;21.24;69.08
13235;BME280;6683;48.506;9.050;2022-07-29T00:36:33;97915.59;;;21.18;69.09
13235;BME280;6683;48.506;9.050;2022-07-29T00:39:34;97913.69;;;21.13;69.06
13235;BME280;6683;48.506;9.050;2022-07-29T00:42:42;97904.56;;;21.09;69.24
13235;BME280;6683;48.506;9.050;2022-07-29T00:45:46;97903.22;;;21.07;69.24
13235;BME280;6683;48.506;9.050;2022-07-29T00:48:49;97900.22;;;21.03;69.56
13235;BME280;6683;48.506;9.050;2022-07-29T00:51:53;97898.28;;;20.99;69.50
13235;BME280;6683;48.506;9.050;2022-07-29T00:54:56;97894.81;;;20.98;69.51
13235;BME280;6683;48.506;9.050;2022-07-29T00:58:00;97884.84;;;20.94;69.44
13235;BME280;6683;48.506;9.050;2022-07-29T01:01:02;97887.81;;;20.92;69.67
13235;BME280;6683;48.506;9.050;2022-07-29T01:04:06;97886.44;;;20.90;69.67
13235;BME280;6683;48.506;9.050;2022-07-29T01:07:10;97878.34;;;20.85;69.80
13235;BME280;6683;48.506;9.050;2022-07-29T01:10:14;97877.00;;;20.82;69.83
13235;BME280;6683;48.506;9.050;2022-07-29T01:13:17;97879.41;;;20.79;69.74
13235;BME280;6683;48.506;9.050;2022-07-29T01:16:25;97870.53;;;20.73;69.83
13235;BME280;6683;48.506;9.050;2022-07-29T01:19:53;97876.38;;;20.70;69.64
13235;BME280;6683;48.506;9.050;2022-07-29T01:23:17;97876.59;;;20.63;69.46
13235;BME280;6683;48.506;9.050;2022-07-29T01:26:39;97873.38;;;20.56;69.59
13235;BME280;6683;48.506;9.050;2022-07-29T01:29:51;97869.25;;;20.49;69.65
13235;BME280;6683;48.506;9.050;2022-07-29T01:33:02;97862.00;;;20.44;69.54
13235;BME280;6683;48.506;9.050;2022-07-29T01:36:16;97860.88;;;20.40;69.97
13235;BME280;6683;48.506;9.050;2022-07-29T01:39:23;97863.03;;;20.38;69.78
13235;BME280;6683;48.506;9.050;2022-07-29T01:42:34;97865.41;;;20.35;70.02
13235;BME280;6683;48.506;9.050;2022-07-29T01:45:43;97854.13;;;20.33;70.16
13235;BME280;6683;48.506;9.050;2022-07-29T01:48:50;97849.81;;;20.32;70.14
13235;BME280;6683;48.506;9.050;2022-07-29T01:51:59;97850.09;;;20.30;70.11
13235;BME280;6683;48.506;9.050;2022-07-29T01:55:11;97848.19;;;20.26;70.26
13235;BME280;6683;48.506;9.050;2022-07-29T01:58:16;97852.50;;;20.27;70.28
13235;BME280;6683;48.506;9.050;2022-07-29T02:01:23;97849.53;;;20.23;70.53
13235;BME280;6683;48.506;9.050;2022-07-29T02:04:28;97856.22;;;20.26;70.30
13235;BME280;6683;48.506;9.050;2022-07-29T02:07:32;97845.22;;;20.22;70.57
13235;BME280;6683;48.506;9.050;2022-07-29T02:10:36;97855.38;;;20.20;70.57
13235;BME280;6683;48.506;9.050;2022-07-29T02:13:41;97858.53;;;20.17;70.38
13235;BME280;6683;48.506;9.050;2022-07-29T02:16:48;97865.22;;;20.15;70.44
13235;BME280;6683;48.506;9.050;2022-07-29T02:19:55;97863.31;;;20.10;70.73
13235;BME280;6683;48.506;9.050;2022-07-29T02:22:59;97856.59;;;20.08;70.44
13235;BME280;6683;48.506;9.050;2022-07-29T02:26:03;97855.22;;;20.05;70.46
13235;BME280;6683;48.506;9.050;2022-07-29T02:29:07;97861.09;;;20.02;70.56
13235;BME280;6683;48.506;9.050;2022-07-29T02:32:14;97862.41;;;20.00;70.75
13235;BME280;6683;48.506;9.050;2022-07-29T02:35:18;97861.59;;;19.99;70.83
13235;BME280;6683;48.506;9.050;2022-07-29T02:38:23;97861.59;;;19.99;70.92
13235;BME280;6683;48.506;9.050;2022-07-29T02:41:47;97859.44;;;19.96;70.72
13235;BME280;6683;48.506;9.050;2022-07-29T02:44:51;97862.34;;;19.94;71.24
13235;BME280;6683;48.506;9.050;2022-07-29T02:47:56;97864.47;;;19.92;71.28
13235;BME280;6683;48.506;9.050;2022-07-29T02:51:07;97857.78;;;19.90;71.32
13235;BME280;6683;48.506;9.050;2022-07-29T02:54:14;97855.09;;;19.90;71.28
13235;BME280;6683;48.506;9.050;2022-07-29T02:57:29;97864.69;;;19.86;71.37
13235;BME280;6683;48.506;9.050;2022-07-29T03:00:37;97855.31;;;19.83;71.23
13235;BME280;6683;48.506;9.050;2022-07-29T03:03:45;97864.91;;;19.79;71.19
13235;BME280;6683;48.506;9.050;2022-07-29T03:06:50;97862.97;;;19.75;71.29
13235;BME280;6683;48.506;9.050;2022-07-29T03:09:53;97870.94;;;19.70;71.30
13235;BME280;6683;48.506;9.050;2022-07-29T03:12:57;97862.63;;;19.66;71.24
13235;BME280;6683;48.506;9.050;2022-07-29T03:16:00;97860.69;;;19.62;71.76
13235;BME280;6683;48.506;9.050;2022-07-29T03:19:05;97863.09;;;19.58;71.62
13235;BME280;6683;48.506;9.050;2022-07-29T03:22:08;97863.31;;;19.57;71.72
13235;BME280;6683;48.506;9.050;2022-07-29T03:25:12;97865.44;;;19.55;71.33
13235;BME280;6683;48.506;9.050;2022-07-29T03:28:15;97867.31;;;19.54;71.61
13235;BME280;6683;48.506;9.050;2022-07-29T03:31:18;97865.94;;;19.52;71.48
13235;BME280;6683;48.506;9.050;2022-07-29T03:34:22;97865.66;;;19.48;71.16
13235;BME280;6683;48.506;9.050;2022-07-29T03:37:24;97855.44;;;19.45;71.33
13235;BME280;6683;48.506;9.050;2022-07-29T03:40:32;97863.72;;;19.44;71.43
13235;BME280;6683;48.506;9.050;2022-07-29T03:43:38;97866.63;;;19.42;71.54
13235;BME280;6683;48.506;9.050;2022-07-29T03:46:42;97865.50;;;19.38;71.39
13235;BME280;6683;48.506;9.050;2022-07-29T03:49:49;97861.72;;;19.34;71.58
13235;BME280;6683;48.506;9.050;2022-07-29T03:52:53;97866.03;;;19.35;71.80
13235;BME280;6683;48.506;9.050;2022-07-29T03:55:59;97868.97;;;19.34;71.66
13235;BME280;6683;48.506;9.050;2022-07-29T03:59:04;97868.13;;;19.33;71.73
13235;BME280;6683;48.506;9.050;2022-07-29T04:02:10;97871.28;;;19.30;71.68
13235;BME280;6683;48.506;9.050;2022-07-29T04:05:15;97867.22;;;19.28;71.56
13235;BME280;6683;48.506;9.050;2022-07-29T04:08:18;97870.69;;;19.23;71.75
13235;BME280;6683;48.506;9.050;2022-07-29T04:11:21;97861.53;;;19.19;71.90
13235;BME280;6683;48.506;9.050;2022-07-29T04:14:23;97863.06;;;19.15;71.76
13235;BME280;6683;48.506;9.050;2022-07-29T04:17:26;97863.31;;;19.13;71.92
13235;BME280;6683;48.506;9.050;2022-07-29T04:20:31;97872.16;;;19.14;71.86
13235;BME280;6683;48.506;9.050;2022-07-29T04:23:33;97871.34;;;19.13;72.20
13235;BME280;6683;48.506;9.050;2022-07-29T04:26:36;97879.38;;;19.13;72.08
13235;BME280;6683;48.506;9.050;2022-07-29T04:29:38;97880.44;;;19.12;71.86
13235;BME280;6683;48.506;9.050;2022-07-29T04:32:40;97869.19;;;19.10;71.94
13235;BME280;6683;48.506;9.050;2022-07-29T04:35:45;97875.31;;;19.11;72.23
13235;BME280;6683;48.506;9.050;2022-07-29T04:38:47;97876.94;;;19.12;72.36
13235;BME280;6683;48.506;9.050;2022-07-29T04:41:49;97870.31;;;19.14;72.34
13235;BME280;6683;48.506;9.050;2022-07-29T04:44:52;97875.41;;;19.16;72.20
13235;BME280;6683;48.506;9.050;2022-07-29T04:47:55;97876.50;;;19.20;72.51
13235;BME280;6683;48.506;9.050;2022-07-29T04:50:59;97874.41;;;19.22;72.54
13235;BME280;6683;48.506;9.050;2022-07-29T04:54:02;97877.38;;;19.26;72.56
13235;BME280;6683;48.506;9.050;2022-07-29T04:57:05;97881.72;;;19.32;72.78
13235;BME280;6683;48.506;9.050;2022-07-29T05:00:09;97881.56;;;19.38;72.63
13235;BME280;6683;48.506;9.050;2022-07-29T05:03:11;97887.81;;;19.44;72.71
13235;BME280;6683;48.506;9.050;2022-07-29T05:06:16;97890.53;;;19.49;72.77
13235;BME280;6683;48.506;9.050;2022-07-29T05:09:18;97890.34;;;19.55;72.73
13235;BME280;6683;48.506;9.050;2022-07-29T05:12:20;97894.47;;;19.63;72.74
13235;BME280;6683;48.506;9.050;2022-07-29T05:15:23;97898.28;;;19.72;72.69
13235;BME280;6683;48.506;9.050;2022-07-29T05:18:25;97895.97;;;19.80;72.83
13235;BME280;6683;48.506;9.050;2022-07-29T05:21:30;97905.75;;;19.91;73.08
13235;BME280;6683;48.506;9.050;2022-07-29T05:24:33;97902.66;;;20.05;72.83
13235;BME280;6683;48.506;9.050;2022-07-29T05:27:35;97893.72;;;20.21;73.00
13235;BME280;6683;48.506;9.050;2022-07-29T05:30:38;97894.13;;;20.39;73.00
13235;BME280;6683;48.506;9.050;2022-07-29T05:33:42;97897.78;;;20.60;73.18
13235;BME280;6683;48.506;9.050;2022-07-29T05:36:46;97895.53;;;20.84;73.58
13235;BME280;6683;48.506;9.050;2022-07-29T05:39:48;97898.94;;;21.11;73.63
13235;BME280;6683;48.506;9.050;2022-07-29T05:42:55;97907.38;;;21.39;73.94
13235;BME280;6683;48.506;9.050;2022-07-29T05:45:58;97897.56;;;21.65;73.44
13235;BME280;6683;48.506;9.050;2022-07-29T05:49:01;97904.56;;;21.81;72.87
13235;BME280;6683;48.506;9.050;2022-07-29T05:52:06;97912.97;;;21.90;72.75
13235;BME280;6683;48.506;9.050;2022-07-29T05:55:09;97915.38;;;22.01;72.98
13235;BME280;6683;48.506;9.050;2022-07-29T05:58:12;97907.06;;;22.08;72.96
13235;BME280;6683;48.506;9.050;2022-07-29T06:01:15;97913.00;;;22.10;72.39
13235;BME280;6683;48.506;9.050;2022-07-29T06:04:17;97915.69;;;22.05;72.28
13235;BME280;6683;48.506;9.050;2022-07-29T06:07:21;97926.44;;;22.05;72.61
13235;BME280;6683;48.506;9.050;2022-07-29T06:10:24;97923.19;;;22.08;72.67
13235;BME280;6683;48.506;9.050;2022-07-29T06:13:27;97924.53;;;22.15;72.69
13235;BME280;6683;48.506;9.050;2022-07-29T06:16:30;97923.47;;;22.16;72.14
13235;BME280;6683;48.506;9.050;2022-07-29T06:19:34;97928.34;;;22.19;72.56
13235;BME280;6683;48.506;9.050;2022-07-29T06:22:38;97931.28;;;22.28;72.78
13235;BME280;6683;48.506;9.050;2022-07-29T06:25:41;97932.13;;;22.44;72.92
13235;BME280;6683;48.506;9.050;2022-07-29T06:28:44;97936.97;;;22.62;72.73
13235;BME280;6683;48.506;9.050;2022-07-29T06:31:46;97927.28;;;22.81;72.99
13235;BME280;6683;48.506;9.050;2022-07-29T06:34:49;97932.91;;;22.99;72.84
13235;BME280;6683;48.506;9.050;2022-07-29T06:37:53;97929.38;;;23.19;72.65
13235;BME280;6683;48.506;9.050;2022-07-29T06:40:56;97933.38;;;23.37;72.40
13235;BME280;6683;48.506;9.050;2022-07-29T06:44:05;97931.16;;;23.54;72.19
13235;BME280;6683;48.506;9.050;2022-07-29T06:47:08;97935.09;;;23.76;72.20
13235;BME280;6683;48.506;9.050;2022-07-29T06:50:10;97934.50;;;23.95;71.81
13235;BME280;6683;48.506;9.050;2022-07-29T06:53:14;97936.84;;;24.11;71.55
13235;BME280;6683;48.506;9.050;2022-07-29T06:56:17;97937.28;;;24.23;70.83
13235;BME280;6683;48.506;9.050;2022-07-29T06:59:19;97938.34;;;24.27;70.64
13235;BME280;6683;48.506;9.050;2022-07-29T07:02:22;97937.97;;;24.39;70.63
13235;BME280;6683;48.506;9.050;2022-07-29T07:05:25;97941.16;;;24.51;70.40
13235;BME280;6683;48.506;9.050;2022-07-29T07:08:29;97946.47;;;24.61;69.83
13235;BME280;6683;48.506;9.050;2022-07-29T07:11:31;97945.63;;;24.66;69.44
13235;BME280;6683;48.506;9.050;2022-07-29T07:14:33;97956.41;;;24.66;68.80
13235;BME280;6683;48.506;9.050;2022-07-29T07:17:37;97951.03;;;24.60;68.46
13235;BME280;6683;48.506;9.050;2022-07-29T07:20:39;97949.41;;;24.59;68.29
13235;BME280;6683;48.506;9.050;2022-07-29T07:23:43;97948.34;;;24.60;68.61
13235;BME280;6683;48.506;9.050;2022-07-29T07:26:45;97948.03;;;24.67;68.47
13235;BME280;6683;48.506;9.050;2022-07-29T07:29:47;97954.19;;;24.78;68.66
13235;BME280;6683;48.506;9.050;2022-07-29T07:33:00;97945.69;;;24.89;68.50
13235;BME280;6683;48.506;9.050;2022-07-29T07:36:03;97948.81;;;25.01;68.30
13235;BME280;6683;48.506;9.050;2022-07-29T07:39:07;97948.97;;;25.15;68.13
13235;BME280;6683;48.506;9.050;2022-07-29T07:42:09;97940.97;;;25.28;67.67
13235;BME280;6683;48.506;9.050;2022-07-29T07:45:13;97944.66;;;25.37;67.17
13235;BME280;6683;48.506;9.050;2022-07-29T07:48:16;97937.84;;;25.45;67.05
13235;BME280;6683;48.506;9.050;2022-07-29T07:51:19;97943.56;;;25.62;66.95
13235;BME280;6683;48.506;9.050;2022-07-29T07:54:22;97942.22;;;25.83;66.59
13235;BME280;6683;48.506;9.050;2022-07-29T07:57:25;97950.59;;;26.05;66.78
13235;BME280;6683;48.506;9.050;2022-07-29T08:00:27;97947.31;;;26.27;66.20
13235;BME280;6683;48.506;9.050;2022-07-29T08:03:30;97945.63;;;26.50;65.54
13235;BME280;6683;48.506;9.050;2022-07-29T08:06:33;97944.88;;;26.63;65.40
13235;BME280;6683;48.506;9.050;2022-07-29T08:09:37;97942.78;;;26.78;64.81
13235;BME280;6683;48.506;9.050;2022-07-29T08:12:39;97937.00;;;26.99;65.07
13235;BME280;6683;48.506;9.050;2022-07-29T08:15:42;97940.63;;;27.21;64.75
13235;BME280;6683;48.506;9.050;2022-07-29T08:18:46;97935.97;;;27.40;64.21
13235;BME280;6683;48.506;9.050;2022-07-29T08:21:48;97940.69;;;27.48;63.28
13235;BME280;6683;48.506;9.050;2022-07-29T08:24:52;97927.22;;;27.57;63.15
13235;BME280;6683;48.506;9.050;2022-07-29T08:27:56;97935.44;;;27.65;62.55
13235;BME280;6683;48.506;9.050;2022-07-29T08:30:58;97926.69;;;27.68;62.42
13235;BME280;6683;48.506;9.050;2022-07-29T08:34:01;97931.94;;;27.79;62.01
13235;BME280;6683;48.506;9.050;2022-07-29T08:37:04;97933.41;;;27.98;61.73
13235;BME280;6683;48.506;9.050;2022-07-29T08:40:09;97937.88;;;28.16;61.34
13235;BME280;6683;48.506;9.050;2022-07-29T08:43:12;97945.25;;;28.38;61.40
13235;BME280;6683;48.506;9.050;2022-07-29T08:46:15;97945.19;;;28.65;60.40
13235;BME280;6683;48.506;9.050;2022-07-29T08:49:17;97951.41;;;28.88;59.87
13235;BME280;6683;48.506;9.050;2022-07-29T08:52:20;97951.06;;;29.11;58.62
13235;BME280;6683;48.506;9.050;2022-07-29T08:55:24;97954.06;;;29.32;57.61
13235;BME280;6683;48.506;9.050;2022-07-29T08:58:32;97950.63;;;29.49;57.58
13235;BME280;6683;48.506;9.050;2022-07-29T09:01:37;97946.69;;;29.72;56.58
13235;BME280;6683;48.506;9.050;2022-07-29T09:04:40;97943.72;;;29.90;55.78
13235;BME280;6683;48.506;9.050;2022-07-29T09:07:43;97949.38;;;30.11;54.85
13235;BME280;6683;48.506;9.050;2022-07-29T09:10:50;97943.16;;;30.36;54.04
13235;BME280;6683;48.506;9.050;2022-07-29T09:13:54;97946.19;;;30.60;53.51
13235;BME280;6683;48.506;9.050;2022-07-29T09:16:56;97942.50;;;30.91;52.95
13235;BME280;6683;48.506;9.050;2022-07-29T09:20:09;97943.69;;;31.19;52.10
13235;BME280;6683;48.506;9.050;2022-07-29T09:23:13;97932.72;;;31.36;51.18
13235;BME280;6683;48.506;9.050;2022-07-29T09:26:17;97935.13;;;31.46;50.40
13235;BME280;6683;48.506;9.050;2022-07-29T09:29:22;97935.41;;;31.53;49.38
13235;BME280;6683;48.506;9.050;2022-07-29T09:32:26;97935.72;;;31.60;49.46
13235;BME280;6683;48.506;9.050;2022-07-29T09:35:30;97932.59;;;31.70;48.84
13235;BME280;6683;48.506;9.050;2022-07-29T09:38:33;97934.47;;;31.78;48.75
13235;BME280;6683;48.506;9.050;2022-07-29T09:41:51;97919.09;;;31.74;49.12
13235;BME280;6683;48.506;9.050;2022-07-29T09:44:54;97927.75;;;31.76;48.86
13235;BME280;6683;48.506;9.050;2022-07-29T09:47:57;97927.03;;;31.87;48.69
13235;BME280;6683;48.506;9.050;2022-07-29T09:51:03;97915.88;;;32.01;48.54
13235;BME280;6683;48.506;9.050;2022-07-29T09:54:23;97914.09;;;32.05;48.14
13235;BME280;6683;48.506;9.050;2022-07-29T09:57:28;97908.44;;;32.10;47.33
13235;BME280;6683;48.506;9.050;2022-07-29T10:00:42;97909.66;;;32.21;47.69
13235;BME280;6683;48.506;9.050;2022-07-29T10:03:51;97906.16;;;32.33;47.21
13235;BME280;6683;48.506;9.050;2022-07-29T10:06:58;97904.78;;;32.47;46.78
13235;BME280;6683;48.506;9.050;2022-07-29T10:10:01;97898.25;;;32.72;46.20
13235;BME280;6683;48.506;9.050;2022-07-29T10:13:12;97890.53;;;32.86;44.83
13235;BME280;6683;48.506;9.050;2022-07-29T10:16:16;97891.09;;;33.13;45.05
13235;BME280;6683;48.506;9.050;2022-07-29T10:19:18;97885.19;;;33.23;43.89
13235;BME280;6683;48.506;9.050;2022-07-29T10:22:21;97883.69;;;33.25;43.67
13235;BME280;6683;48.506;9.050;2022-07-29T10:25:25;97880.72;;;33.30;43.22
13235;BME280;6683;48.506;9.050;2022-07-29T10:28:30;97881.53;;;33.19;43.23
13235;BME280;6683;48.506;9.050;2022-07-29T10:31:40;97882.75;;;33.09;43.61
13235;BME280;6683;48.506;9.050;2022-07-29T10:38:51;97877.22;;;32.85;43.17
13235;BME280;6683;48.506;9.050;2022-07-29T10:42:11;97873.44;;;32.77;43.28
13235;BME280;6683;48.506;9.050;2022-07-29T10:45:19;97869.56;;;32.78;43.53
13235;BME280;6683;48.506;9.050;2022-07-29T10:48:22;97862.41;;;32.86;44.20
13235;BME280;6683;48.506;9.050;2022-07-29T10:51:25;97864.25;;;32.94;43.33
13235;BME280;6683;48.506;9.050;2022-07-29T10:54:49;97858.47;;;33.08;43.42
13235;BME280;6683;48.506;9.050;2022-07-29T10:58:11;97862.16;;;33.36;42.64
13235;BME280;6683;48.506;9.050;2022-07-29T11:01:30;97857.47;;;33.72;42.58
13235;BME280;6683;48.506;9.050;2022-07-29T11:04:59;97861.63;;;34.06;42.52
13235;BME280;6683;48.506;9.050;2022-07-29T11:08:24;97861.47;;;34.42;41.91
13235;BME280;6683;48.506;9.050;2022-07-29T11:11:32;97875.53;;;34.96;39.89
13235;BME280;6683;48.506;9.050;2022-07-29T11:14:55;97881.09;;;35.15;39.49
13235;BME280;6683;48.506;9.050;2022-07-29T11:18:07;97886.25;;;35.01;39.39
13235;BME280;6683;48.506;9.050;2022-07-29T11:21:35;97869.91;;;34.77;39.76
13235;BME280;6683;48.506;9.050;2022-07-29T11:24:38;97862.81;;;34.61;39.36
13235;BME280;6683;48.506;9.050;2022-07-29T11:27:40;97855.47;;;34.80;39.18
13235;BME280;6683;48.506;9.050;2022-07-29T11:30:51;97863.88;;;35.15;38.20
13235;BME280;6683;48.506;9.050;2022-07-29T11:33:55;97866.69;;;35.50;37.86
13235;BME280;6683;48.506;9.050;2022-07-29T11:37:18;97857.00;;;35.90;36.91
13235;BME280;6683;48.506;9.050;2022-07-29T11:40:21;97864.66;;;36.16;36.18
13235;BME280;6683;48.506;9.050;2022-07-29T11:43:49;97867.34;;;36.32;35.26
13235;BME280;6683;48.506;9.050;2022-07-29T11:46:52;97868.81;;;36.45;35.09
13235;BME280;6683;48.506;9.050;2022-07-29T11:49:57;97868.88;;;36.67;34.31
13235;BME280;6683;48.506;9.050;2022-07-29T11:53:02;97861.34;;;36.87;33.94
13235;BME280;6683;48.506;9.050;2022-07-29T11:56:08;97862.09;;;36.84;34.06
13235;BME280;6683;48.506;9.050;2022-07-29T11:59:11;97869.16;;;36.43;34.67
13235;BME280;6683;48.506;9.050;2022-07-29T12:02:15;97866.50;;;35.93;34.95
13235;BME280;6683;48.506;9.050;2022-07-29T12:05:19;97864.97;;;35.45;35.67
13235;BME280;6683;48.506;9.050;2022-07-29T12:08:22;97872.97;;;35.03;36.10
13235;BME280;6683;48.506;9.050;2022-07-29T12:11:27;97872.75;;;34.65;35.69
13235;BME280;6683;48.506;9.050;2022-07-29T12:14:31;97883.38;;;34.27;36.59
13235;BME280;6683;48.506;9.050;2022-07-29T12:17:35;97879.56;;;33.92;37.02
13235;BME280;6683;48.506;9.050;2022-07-29T12:20:39;97879.13;;;33.65;37.36
13235;BME280;6683;48.506;9.050;2022-07-29T12:23:52;97879.97;;;33.54;37.63
13235;BME280;6683;48.506;9.050;2022-07-29T12:26:57;97874.47;;;33.42;37.90
13235;BME280;6683;48.506;9.050;2022-07-29T12:30:03;97885.53;;;33.33;38.03
13235;BME280;6683;48.506;9.050;2022-07-29T12:33:19;97882.88;;;33.37;38.41
13235;BME280;6683;48.506;9.050;2022-07-29T12:36:23;97882.78;;;33.45;38.27
13235;BME280;6683;48.506;9.050;2022-07-29T12:39:26;97893.19;;;33.52;38.03
13235;BME280;6683;48.506;9.050;2022-07-29T12:42:28;97886.47;;;33.49;38.17
13235;BME280;6683;48.506;9.050;2022-07-29T12:45:31;97892.00;;;33.41;38.30
13235;BME280;6683;48.506;9.050;2022-07-29T12:48:35;97887.00;;;33.31;38.48
13235;BME280;6683;48.506;9.050;2022-07-29T12:51:40;97889.50;;;33.24;38.37
13235;BME280;6683;48.506;9.050;2022-07-29T12:54:47;97891.66;;;33.18;38.74
13235;BME280;6683;48.506;9.050;2022-07-29T12:57:51;97896.88;;;33.11;38.86
13235;BME280;6683;48.506;9.050;2022-07-29T13:01:03;97898.66;;;32.95;38.84
13235;BME280;6683;48.506;9.050;2022-07-29T13:04:06;97897.09;;;32.73;38.84
13235;BME280;6683;48.506;9.050;2022-07-29T13:07:10;97910.25;;;32.47;39.35
13235;BME280;6683;48.506;9.050;2022-07-29T13:10:16;97928.09;;;32.24;39.32
13235;BME280;6683;48.506;9.050;2022-07-29T13:13:19;97934.41;;;31.95;39.96
13235;BME280;6683;48.506;9.050;2022-07-29T13:16:21;97942.94;;;31.56;40.60
13235;BME280;6683;48.506;9.050;2022-07-29T13:19:37;97930.72;;;31.16;40.68
13235;BME280;6683;48.506;9.050;2022-07-29T13:22:42;97913.47;;;30.95;41.06
13235;BME280;6683;48.506;9.050;2022-07-29T13:25:49;97922.94;;;30.80;41.35
13235;BME280;6683;48.506;9.050;2022-07-29T13:28:51;97938.47;;;30.71;41.19
13235;BME280;6683;48.506;9.050;2022-07-29T13:31:53;97936.28;;;30.64;41.54
13235;BME280;6683;48.506;9.050;2022-07-29T13:34:56;97939.63;;;30.61;41.83
13235;BME280;6683;48.506;9.050;2022-07-29T13:38:04;97930.31;;;30.62;41.91
13235;BME280;6683;48.506;9.050;2022-07-29T13:41:06;97925.69;;;30.63;41.87
13235;BME280;6683;48.506;9.050;2022-07-29T13:44:11;97935.63;;;30.59;41.89
13235;BME280;6683;48.506;9.050;2022-07-29T13:47:14;97934.03;;;30.49;41.84
13235;BME280;6683;48.506;9.050;2022-07-29T13:50:16;97935.47;;;30.47;42.03
13235;BME280;6683;48.506;9.050;2022-07-29T13:53:21;97922.47;;;30.44;42.34
13235;BME280;6683;48.506;9.050;2022-07-29T13:56:23;97933.22;;;30.40;42.23
13235;BME280;6683;48.506;9.050;2022-07-29T13:59:25;97936.28;;;30.30;42.25
13235;BME280;6683;48.506;9.050;2022-07-29T14:02:28;97929.84;;;30.18;42.81
13235;BME280;6683;48.506;9.050;2022-07-29T14:05:30;97923.25;;;30.02;42.58
13235;BME280;6683;48.506;9.050;2022-07-29T14:08:34;97923.38;;;29.88;43.04
13235;BME280;6683;48.506;9.050;2022-07-29T14:11:36;97927.22;;;29.78;43.27
13235;BME280;6683;48.506;9.050;2022-07-29T14:14:39;97922.84;;;29.69;43.34
13235;BME280;6683;48.506;9.050;2022-07-29T14:17:42;97917.06;;;29.62;43.32
13235;BME280;6683;48.506;9.050;2022-07-29T14:20:44;97916.41;;;29.56;43.35
13235;BME280;6683;48.506;9.050;2022-07-29T14:23:48;97914.00;;;29.55;43.30
13235;BME280;6683;48.506;9.050;2022-07-29T14:26:50;97912.72;;;29.52;43.09
13235;BME280;6683;48.506;9.050;2022-07-29T14:29:52;97920.25;;;29.55;43.13
13235;BME280;6683;48.506;9.050;2022-07-29T14:32:55;97921.06;;;29.56;42.79
13235;BME280;6683;48.506;9.050;2022-07-29T14:35:57;97922.66;;;29.57;42.74
13235;BME280;6683;48.506;9.050;2022-07-29T14:39:02;97930.66;;;29.53;43.02
13235;BME280;6683;48.506;9.050;2022-07-29T14:42:05;97939.13;;;29.52;43.17
13235;BME280;6683;48.506;9.050;2022-07-29T14:45:09;97924.03;;;29.46;43.16
13235;BME280;6683;48.506;9.050;2022-07-29T14:48:11;97933.34;;;29.45;43.31
13235;BME280;6683;48.506;9.050;2022-07-29T14:51:14;97936.06;;;29.45;43.58
13235;BME280;6683;48.506;9.050;2022-07-29T14:54:18;97939.09;;;29.43;43.29
13235;BME280;6683;48.506;9.050;2022-07-29T14:57:21;97932.53;;;29.44;43.50
13235;BME280;6683;48.506;9.050;2022-07-29T15:00:23;97934.91;;;29.46;43.62
13235;BME280;6683;48.506;9.050;2022-07-29T15:03:26;97942.78;;;29.47;43.51
13235;BME280;6683;48.506;9.050;2022-07-29T15:06:28;97938.31;;;29.51;43.86
13235;BME280;6683;48.506;9.050;2022-07-29T15:09:32;97937.66;;;29.54;43.64
13235;BME280;6683;48.506;9.050;2022-07-29T15:12:35;97939.44;;;29.59;43.69
13235;BME280;6683;48.506;9.050;2022-07-29T15:15:38;97943.94;;;29.63;43.90
13235;BME280;6683;48.506;9.050;2022-07-29T15:18:42;97940.13;;;29.64;44.21
13235;BME280;6683;48.506;9.050;2022-07-29T15:21:44;97931.31;;;29.67;43.86
13235;BME280;6683;48.506;9.050;2022-07-29T15:24:48;97925.25;;;29.70;44.03
13235;BME280;6683;48.506;9.050;2022-07-29T15:27:51;97925.25;;;29.70;44.22
13235;BME280;6683;48.506;9.050;2022-07-29T15:30:53;97934.84;;;29.68;44.33
13235;BME280;6683;48.506;9.050;2022-07-29T15:33:56;97925.72;;;29.64;44.49
13235;BME280;6683;48.506;9.050;2022-07-29T15:36:58;97930.03;;;29.65;44.75
13235;BME280;6683;48.506;9.050;2022-07-29T15:40:04;97929.25;;;29.64;44.81
13235;BME280;6683;48.506;9.050;2022-07-29T15:43:07;97929.06;;;29.61;44.64
13235;BME280;6683;48.506;9.050;2022-07-29T15:46:13;97922.03;;;29.60;45.17
13235;BME280;6683;48.506;9.050;2022-07-29T15:49:34;97923.78;;;29.56;44.83
13235;BME280;6683;48.506;9.050;2022-07-29T15:52:37;97926.63;;;29.51;45.03
13235;BME280;6683;48.506;9.050;2022-07-29T15:55:41;97919.75;;;29.53;45.13
13235;BME280;6683;48.506;9.050;2022-07-29T15:58:44;97928.25;;;29.60;45.64
13235;BME280;6683;48.506;9.050;2022-07-29T16:01:46;97929.25;;;29.64;45.40
13235;BME280;6683;48.506;9.050;2022-07-29T16:04:49;97928.28;;;29.69;45.64
13235;BME280;6683;48.506;9.050;2022-07-29T16:08:01;97923.03;;;29.72;45.73
13235;BME280;6683;48.506;9.050;2022-07-29T16:11:05;97921.78;;;29.78;44.94
13235;BME280;6683;48.506;9.050;2022-07-29T16:14:08;97916.97;;;29.84;44.94
13235;BME280;6683;48.506;9.050;2022-07-29T16:17:10;97925.50;;;29.91;44.98
13235;BME280;6683;48.506;9.050;2022-07-29T16:20:13;97925.16;;;29.92;44.51
13235;BME280;6683;48.506;9.050;2022-07-29T16:23:15;97921.81;;;29.95;44.04
13235;BME280;6683;48.506;9.050;2022-07-29T16:26:19;97912.50;;;29.96;44.12
13235;BME280;6683;48.506;9.050;2022-07-29T16:29:22;97913.81;;;29.99;44.58
13235;BME280;6683;48.506;9.050;2022-07-29T16:32:24;97913.97;;;30.02;44.39
13235;BME280;6683;48.506;9.050;2022-07-29T16:35:26;97908.50;;;30.02;44.22
13235;BME280;6683;48.506;9.050;2022-07-29T16:38:30;97915.41;;;30.00;44.21